sensor_id;sensor_type;location;lat;lon;timestamp;temperature;humidity
52509;DHT22;38420;53.150;6.370;2022-12-10T00:00:17;-1.50;99.90
52509;DHT22;38420;53.150;6.370;2022-12-10T00:02:43;-1.50;99.90
52509;DHT22;38420;53.150;6.370;2022-12-10T00:05:09;-1.80;99.90
52509;DHT22;38420;53.150;6.370;2022-12-10T00:07:34;-0.90;99.90
52509;DHT22;38420;53.150;6.370;2022-12-10T00:10:00;-1.50;99.90
52509;DHT22;38420;53.150;6.370;2022-12-10T00:12:26;-1.80;99.90
52509;DHT22;38420;53.150;6.370;2022-12-10T00:14:51;-1.50;99.90
52509;DHT22;38420;53.150;6.370;2022-12-10T00:17:17;-1.70;99.90
52509;DHT22;38420;53.150;6.370;2022-12-10T00:19:43;-1.70;99.90
52509;DHT22;38420;53.150;6.370;2022-12-10T00:22:08;-1.60;99.90
52509;DHT22;38420;53.150;6.370;2022-12-10T00:24:34;-1.50;99.90
52509;DHT22;38420;53.150;6.370;2022-12-10T00:26:59;-1.60;99.90
52509;DHT22;38420;53.150;6.370;2022-12-10T00:29:25;-1.50;99.90
52509;DHT22;38420;53.150;6.370;2022-12-10T00:31:50;-1.80;99.90
52509;DHT22;38420;53.150;6.370;2022-12-10T00:34:16;-1.80;99.90
52509;DHT22;38420;53.150;6.370;2022-12-10T00:36:45;-1.90;99.90
52509;DHT22;38420;53.150;6.370;2022-12-10T00:39:19;-1.60;99.90
52509;DHT22;38420;53.150;6.370;2022-12-10T00:41:46;-1.90;99.90
52509;DHT22;38420;53.150;6.370;2022-12-10T00:44:12;-1.60;99.90
52509;DHT22;38420;53.150;6.370;2022-12-10T00:46:38;-1.90;99.90
52509;DHT22;38420;53.150;6.370;2022-12-10T00:49:04;-1.60;99.90
52509;DHT22;38420;53.150;6.370;2022-12-10T00:51:30;-1.70;99.90
52509;DHT22;38420;53.150;6.370;2022-12-10T00:53:57;-1.90;99.90
52509;DHT22;38420;53.150;6.370;2022-12-10T00:56:26;-1.90;99.90
52509;DHT22;38420;53.150;6.370;2022-12-10T00:58:52;-1.70;99.90
52509;DHT22;38420;53.150;6.370;2022-12-10T01:01:28;-1.70;99.90
52509;DHT22;38420;53.150;6.370;2022-12-10T01:03:58;-1.70;99.90
52509;DHT22;38420;53.150;6.370;2022-12-10T01:06:25;-1.80;99.90
52509;DHT22;38420;53.150;6.370;2022-12-10T01:08:52;-1.90;99.90
52509;DHT22;38420;53.150;6.370;2022-12-10T01:11:20;-1.70;99.90
52509;DHT22;38420;53.150;6.370;2022-12-10T01:13:47;-1.90;99.90
52509;DHT22;38420;53.150;6.370;2022-12-10T01:16:15;-2.00;99.90
52509;DHT22;38420;53.150;6.370;2022-12-10T01:18:41;-2.10;99.90
52509;DHT22;38420;53.150;6.370;2022-12-10T01:21:13;-2.00;99.90
52509;DHT22;38420;53.150;6.370;2022-12-10T01:23:41;-2.00;99.90
52509;DHT22;38420;53.150;6.370;2022-12-10T01:26:13;-2.10;99.90
52509;DHT22;38420;53.150;6.370;2022-12-10T01:28:40;-2.10;99.90
52509;DHT22;38420;53.150;6.370;2022-12-10T01:31:15;-1.80;99.90
52509;DHT22;38420;53.150;6.370;2022-12-10T01:33:41;-2.10;99.90
52509;DHT22;38420;53.150;6.370;2022-12-10T01:36:15;-2.10;99.90
52509;DHT22;38420;53.150;6.370;2022-12-10T01:38:41;-2.30;99.90
52509;DHT22;38420;53.150;6.370;2022-12-10T01:41:14;-2.10;99.90
52509;DHT22;38420;53.150;6.370;2022-12-10T01:46:26;-2.10;99.90
52509;DHT22;38420;53.150;6.370;2022-12-10T01:48:52;-2.10;99.90
52509;DHT22;38420;53.150;6.370;2022-12-10T01:51:20;-2.20;99.90
52509;DHT22;38420;53.150;6.370;2022-12-10T01:53:46;-2.00;99.90
52509;DHT22;38420;53.150;6.370;2022-12-10T01:56:13;-2.10;99.90
52509;DHT22;38420;53.150;6.370;2022-12-10T01:58:41;-2.00;99.90
52509;DHT22;38420;53.150;6.370;2022-12-10T02:01:34;-2.20;99.90
52509;DHT22;38420;53.150;6.370;2022-12-10T02:07:13;-2.10;99.90
52509;DHT22;38420;53.150;6.370;2022-12-10T02:09:48;-2.40;99.90
52509;DHT22;38420;53.150;6.370;2022-12-10T02:17:36;-2.10;99.90
52509;DHT22;38420;53.150;6.370;2022-12-10T02:20:05;-2.10;99.90
52509;DHT22;38420;53.150;6.370;2022-12-10T02:22:39;-2.10;99.90
52509;DHT22;38420;53.150;6.370;2022-12-10T02:25:07;-2.30;99.90
52509;DHT22;38420;53.150;6.370;2022-12-10T02:27:59;-2.40;99.90
52509;DHT22;38420;53.150;6.370;2022-12-10T02:30:29;-2.50;99.90
52509;DHT22;38420;53.150;6.370;2022-12-10T02:32:57;-2.50;99.90
52509;DHT22;38420;53.150;6.370;2022-12-10T02:35:27;-2.30;99.90
52509;DHT22;38420;53.150;6.370;2022-12-10T02:38:01;-2.40;99.90
52509;DHT22;38420;53.150;6.370;2022-12-10T02:40:32;-2.40;99.90
52509;DHT22;38420;53.150;6.370;2022-12-10T02:42:58;-2.20;99.90
52509;DHT22;38420;53.150;6.370;2022-12-10T02:45:26;-2.30;99.90
52509;DHT22;38420;53.150;6.370;2022-12-10T02:47:56;-2.50;99.90
52509;DHT22;38420;53.150;6.370;2022-12-10T02:50:22;-2.30;99.90
52509;DHT22;38420;53.150;6.370;2022-12-10T02:52:49;-2.30;99.90
52509;DHT22;38420;53.150;6.370;2022-12-10T02:55:15;-2.50;99.90
52509;DHT22;38420;53.150;6.370;2022-12-10T03:00:24;-2.50;99.90
52509;DHT22;38420;53.150;6.370;2022-12-10T03:03:05;-2.30;99.90
52509;DHT22;38420;53.150;6.370;2022-12-10T03:08:16;-2.20;99.90
52509;DHT22;38420;53.150;6.370;2022-12-10T03:10:55;-2.40;99.90
52509;DHT22;38420;53.150;6.370;2022-12-10T03:13:29;-2.20;99.90
52509;DHT22;38420;53.150;6.370;2022-12-10T03:15:59;-2.40;99.90
52509;DHT22;38420;53.150;6.370;2022-12-10T03:18:26;-2.20;99.90
52509;DHT22;38420;53.150;6.370;2022-12-10T03:20:53;-2.20;99.90
52509;DHT22;38420;53.150;6.370;2022-12-10T03:23:23;-2.40;99.90
52509;DHT22;38420;53.150;6.370;2022-12-10T03:25:50;-2.50;99.90
52509;DHT22;38420;53.150;6.370;2022-12-10T03:28:18;-2.30;99.90
52509;DHT22;38420;53.150;6.370;2022-12-10T03:30:45;-2.60;99.90
52509;DHT22;38420;53.150;6.370;2022-12-10T03:33:12;-2.40;99.90
52509;DHT22;38420;53.150;6.370;2022-12-10T03:35:38;-2.40;99.90
52509;DHT22;38420;53.150;6.370;2022-12-10T03:38:04;-2.40;99.90
52509;DHT22;38420;53.150;6.370;2022-12-10T03:40:30;-2.50;99.90
52509;DHT22;38420;53.150;6.370;2022-12-10T03:42:56;-2.60;99.90
52509;DHT22;38420;53.150;6.370;2022-12-10T03:45:22;-2.50;99.90
52509;DHT22;38420;53.150;6.370;2022-12-10T03:47:47;-2.50;99.90
52509;DHT22;38420;53.150;6.370;2022-12-10T03:50:14;-2.30;99.90
52509;DHT22;38420;53.150;6.370;2022-12-10T03:52:40;-2.60;99.90
52509;DHT22;38420;53.150;6.370;2022-12-10T03:55:07;-2.50;99.90
52509;DHT22;38420;53.150;6.370;2022-12-10T03:57:34;-2.50;99.90
52509;DHT22;38420;53.150;6.370;2022-12-10T03:59:59;-2.50;99.90
52509;DHT22;38420;53.150;6.370;2022-12-10T04:02:25;-2.40;99.90
52509;DHT22;38420;53.150;6.370;2022-12-10T04:04:50;-2.50;99.90
52509;DHT22;38420;53.150;6.370;2022-12-10T04:07:16;-2.40;99.90
52509;DHT22;38420;53.150;6.370;2022-12-10T04:09:42;-2.40;99.90
52509;DHT22;38420;53.150;6.370;2022-12-10T04:12:07;-2.40;99.90
52509;DHT22;38420;53.150;6.370;2022-12-10T04:14:33;-2.20;99.90
52509;DHT22;38420;53.150;6.370;2022-12-10T04:17:17;-2.20;99.90
52509;DHT22;38420;53.150;6.370;2022-12-10T04:19:43;-2.20;99.90
52509;DHT22;38420;53.150;6.370;2022-12-10T04:22:10;-2.10;99.90
52509;DHT22;38420;53.150;6.370;2022-12-10T04:24:54;-2.10;99.90
52509;DHT22;38420;53.150;6.370;2022-12-10T04:27:52;-1.80;99.90
52509;DHT22;38420;53.150;6.370;2022-12-10T04:30:18;-1.90;99.90
52509;DHT22;38420;53.150;6.370;2022-12-10T04:32:43;-1.90;99.90
52509;DHT22;38420;53.150;6.370;2022-12-10T04:35:09;-1.80;99.90
52509;DHT22;38420;53.150;6.370;2022-12-10T04:37:35;-1.90;99.90
52509;DHT22;38420;53.150;6.370;2022-12-10T04:40:00;-1.90;99.90
52509;DHT22;38420;53.150;6.370;2022-12-10T04:42:26;-1.70;99.90
52509;DHT22;38420;53.150;6.370;2022-12-10T04:44:52;-1.70;99.90
52509;DHT22;38420;53.150;6.370;2022-12-10T04:47:18;-1.60;99.90
52509;DHT22;38420;53.150;6.370;2022-12-10T04:49:43;-1.50;99.90
52509;DHT22;38420;53.150;6.370;2022-12-10T04:52:12;-1.70;99.90
52509;DHT22;38420;53.150;6.370;2022-12-10T04:54:38;-1.80;99.90
52509;DHT22;38420;53.150;6.370;2022-12-10T04:57:03;-1.70;99.90
52509;DHT22;38420;53.150;6.370;2022-12-10T04:59:29;-1.50;99.90
52509;DHT22;38420;53.150;6.370;2022-12-10T05:01:54;-1.50;99.90
52509;DHT22;38420;53.150;6.370;2022-12-10T05:04:20;-1.50;99.90
52509;DHT22;38420;53.150;6.370;2022-12-10T05:06:48;-1.60;99.90
52509;DHT22;38420;53.150;6.370;2022-12-10T05:09:14;-1.70;99.90
52509;DHT22;38420;53.150;6.370;2022-12-10T05:11:41;-1.50;99.90
52509;DHT22;38420;53.150;6.370;2022-12-10T05:14:08;-1.50;99.90
52509;DHT22;38420;53.150;6.370;2022-12-10T05:16:33;-1.50;99.90
52509;DHT22;38420;53.150;6.370;2022-12-10T05:19:00;-1.90;99.90
52509;DHT22;38420;53.150;6.370;2022-12-10T05:21:28;-1.70;99.90
52509;DHT22;38420;53.150;6.370;2022-12-10T05:24:15;-1.50;99.90
52509;DHT22;38420;53.150;6.370;2022-12-10T05:26:41;-1.60;99.90
52509;DHT22;38420;53.150;6.370;2022-12-10T05:29:07;-1.90;99.90
52509;DHT22;38420;53.150;6.370;2022-12-10T05:31:34;-1.70;99.90
52509;DHT22;38420;53.150;6.370;2022-12-10T05:33:59;-1.90;99.90
52509;DHT22;38420;53.150;6.370;2022-12-10T05:36:29;-1.80;99.90
52509;DHT22;38420;53.150;6.370;2022-12-10T05:38:56;-1.60;99.90
52509;DHT22;38420;53.150;6.370;2022-12-10T05:41:25;-1.90;99.90
52509;DHT22;38420;53.150;6.370;2022-12-10T05:43:53;-1.50;99.90
52509;DHT22;38420;53.150;6.370;2022-12-10T05:46:22;-1.60;99.90
52509;DHT22;38420;53.150;6.370;2022-12-10T05:48:49;-1.70;99.90
52509;DHT22;38420;53.150;6.370;2022-12-10T05:51:17;-1.70;99.90
52509;DHT22;38420;53.150;6.370;2022-12-10T05:53:43;-1.90;99.90
52509;DHT22;38420;53.150;6.370;2022-12-10T05:56:11;-1.70;99.90
52509;DHT22;38420;53.150;6.370;2022-12-10T05:58:39;-1.60;99.90
52509;DHT22;38420;53.150;6.370;2022-12-10T06:01:17;-1.60;99.90
52509;DHT22;38420;53.150;6.370;2022-12-10T06:03:42;-1.80;99.90
52509;DHT22;38420;53.150;6.370;2022-12-10T06:06:09;-1.60;99.90
52509;DHT22;38420;53.150;6.370;2022-12-10T06:08:36;-1.70;99.90
52509;DHT22;38420;53.150;6.370;2022-12-10T06:11:03;-1.90;99.90
52509;DHT22;38420;53.150;6.370;2022-12-10T06:13:28;-1.70;99.90
52509;DHT22;38420;53.150;6.370;2022-12-10T06:15:54;-1.80;99.90
52509;DHT22;38420;53.150;6.370;2022-12-10T06:18:20;-1.60;99.90
52509;DHT22;38420;53.150;6.370;2022-12-10T06:20:46;-1.90;99.90
52509;DHT22;38420;53.150;6.370;2022-12-10T06:23:12;-1.70;99.90
52509;DHT22;38420;53.150;6.370;2022-12-10T06:25:38;-2.00;99.90
52509;DHT22;38420;53.150;6.370;2022-12-10T06:28:04;-1.90;99.90
52509;DHT22;38420;53.150;6.370;2022-12-10T06:30:30;-1.90;99.90
52509;DHT22;38420;53.150;6.370;2022-12-10T06:32:55;-2.00;99.90
52509;DHT22;38420;53.150;6.370;2022-12-10T06:35:21;-1.60;99.90
52509;DHT22;38420;53.150;6.370;2022-12-10T06:37:48;-2.00;99.90
52509;DHT22;38420;53.150;6.370;2022-12-10T06:40:14;-1.60;99.90
52509;DHT22;38420;53.150;6.370;2022-12-10T06:42:40;-1.60;99.90
52509;DHT22;38420;53.150;6.370;2022-12-10T06:45:06;-1.80;99.90
52509;DHT22;38420;53.150;6.370;2022-12-10T06:47:31;-1.90;99.90
52509;DHT22;38420;53.150;6.370;2022-12-10T06:49:57;-1.50;99.90
52509;DHT22;38420;53.150;6.370;2022-12-10T06:52:22;-1.50;99.90
52509;DHT22;38420;53.150;6.370;2022-12-10T06:54:48;-1.60;99.90
52509;DHT22;38420;53.150;6.370;2022-12-10T06:57:14;-1.90;99.90
52509;DHT22;38420;53.150;6.370;2022-12-10T06:59:39;-1.70;99.90
52509;DHT22;38420;53.150;6.370;2022-12-10T07:02:05;-1.90;99.90
52509;DHT22;38420;53.150;6.370;2022-12-10T07:04:30;-1.70;99.90
52509;DHT22;38420;53.150;6.370;2022-12-10T07:06:56;-1.70;99.90
52509;DHT22;38420;53.150;6.370;2022-12-10T07:09:22;-1.50;99.90
52509;DHT22;38420;53.150;6.370;2022-12-10T07:11:47;-1.70;99.90
52509;DHT22;38420;53.150;6.370;2022-12-10T07:14:17;-1.90;99.90
52509;DHT22;38420;53.150;6.370;2022-12-10T07:16:42;-3.00;99.90
52509;DHT22;38420;53.150;6.370;2022-12-10T07:19:10;-1.50;99.90
52509;DHT22;38420;53.150;6.370;2022-12-10T07:21:36;-1.50;99.90
52509;DHT22;38420;53.150;6.370;2022-12-10T07:24:08;-1.70;99.90
52509;DHT22;38420;53.150;6.370;2022-12-10T07:26:38;-1.80;99.90
52509;DHT22;38420;53.150;6.370;2022-12-10T07:29:06;-1.80;99.90
52509;DHT22;38420;53.150;6.370;2022-12-10T07:31:33;-1.60;99.90
52509;DHT22;38420;53.150;6.370;2022-12-10T07:33:59;-1.90;99.90
52509;DHT22;38420;53.150;6.370;2022-12-10T07:36:26;-1.60;99.90
52509;DHT22;38420;53.150;6.370;2022-12-10T07:38:53;-1.60;99.90
52509;DHT22;38420;53.150;6.370;2022-12-10T07:41:20;-1.90;99.90
52509;DHT22;38420;53.150;6.370;2022-12-10T07:43:47;-1.70;99.90
52509;DHT22;38420;53.150;6.370;2022-12-10T07:46:17;-1.90;99.90
52509;DHT22;38420;53.150;6.370;2022-12-10T07:48:45;-2.00;99.90
52509;DHT22;38420;53.150;6.370;2022-12-10T07:51:11;-2.00;99.90
52509;DHT22;38420;53.150;6.370;2022-12-10T07:53:38;-1.70;99.90
52509;DHT22;38420;53.150;6.370;2022-12-10T07:56:04;-1.90;99.90
52509;DHT22;38420;53.150;6.370;2022-12-10T07:58:30;-1.80;99.90
52509;DHT22;38420;53.150;6.370;2022-12-10T08:00:56;-1.70;99.90
52509;DHT22;38420;53.150;6.370;2022-12-10T08:03:21;-2.10;99.90
52509;DHT22;38420;53.150;6.370;2022-12-10T08:05:47;-1.80;99.90
52509;DHT22;38420;53.150;6.370;2022-12-10T08:08:13;-1.60;99.90
52509;DHT22;38420;53.150;6.370;2022-12-10T08:10:38;-2.10;99.90
52509;DHT22;38420;53.150;6.370;2022-12-10T08:13:05;-1.80;99.90
52509;DHT22;38420;53.150;6.370;2022-12-10T08:15:32;-2.00;99.90
52509;DHT22;38420;53.150;6.370;2022-12-10T08:17:58;-2.20;99.90
52509;DHT22;38420;53.150;6.370;2022-12-10T08:20:24;-1.80;99.90
52509;DHT22;38420;53.150;6.370;2022-12-10T08:22:51;-2.20;99.90
52509;DHT22;38420;53.150;6.370;2022-12-10T08:25:17;-2.10;99.90
52509;DHT22;38420;53.150;6.370;2022-12-10T08:27:43;-2.10;99.90
52509;DHT22;38420;53.150;6.370;2022-12-10T08:30:14;-1.90;99.90
52509;DHT22;38420;53.150;6.370;2022-12-10T08:32:39;-3.60;99.90
52509;DHT22;38420;53.150;6.370;2022-12-10T08:35:05;-2.10;99.90
52509;DHT22;38420;53.150;6.370;2022-12-10T08:37:31;-1.80;99.90
52509;DHT22;38420;53.150;6.370;2022-12-10T08:39:56;-2.00;99.90
52509;DHT22;38420;53.150;6.370;2022-12-10T08:42:22;-1.60;99.90
52509;DHT22;38420;53.150;6.370;2022-12-10T08:44:48;-1.90;99.90
52509;DHT22;38420;53.150;6.370;2022-12-10T08:47:13;-1.90;99.90
52509;DHT22;38420;53.150;6.370;2022-12-10T08:49:39;-1.60;99.90
52509;DHT22;38420;53.150;6.370;2022-12-10T08:52:04;-1.60;99.90
52509;DHT22;38420;53.150;6.370;2022-12-10T08:54:30;-1.90;99.90
52509;DHT22;38420;53.150;6.370;2022-12-10T08:56:55;-1.80;99.90
52509;DHT22;38420;53.150;6.370;2022-12-10T08:59:21;-1.60;99.90
52509;DHT22;38420;53.150;6.370;2022-12-10T09:01:47;-1.60;99.90
52509;DHT22;38420;53.150;6.370;2022-12-10T09:04:12;-2.10;99.90
52509;DHT22;38420;53.150;6.370;2022-12-10T09:06:38;-2.00;99.90
52509;DHT22;38420;53.150;6.370;2022-12-10T09:09:04;-1.70;99.90
52509;DHT22;38420;53.150;6.370;2022-12-10T09:11:32;-2.00;99.90
52509;DHT22;38420;53.150;6.370;2022-12-10T09:13:58;-1.80;99.90
52509;DHT22;38420;53.150;6.370;2022-12-10T09:16:32;-1.90;99.90
52509;DHT22;38420;53.150;6.370;2022-12-10T09:18:59;-2.00;99.90
52509;DHT22;38420;53.150;6.370;2022-12-10T09:21:25;-1.50;99.90
52509;DHT22;38420;53.150;6.370;2022-12-10T09:23:51;-1.90;99.90
52509;DHT22;38420;53.150;6.370;2022-12-10T09:26:17;-1.50;99.90
52509;DHT22;38420;53.150;6.370;2022-12-10T09:28:44;-1.80;99.90
52509;DHT22;38420;53.150;6.370;2022-12-10T09:31:10;-1.20;99.90
52509;DHT22;38420;53.150;6.370;2022-12-10T09:33:36;-1.40;99.90
52509;DHT22;38420;53.150;6.370;2022-12-10T09:36:03;-1.60;99.90
52509;DHT22;38420;53.150;6.370;2022-12-10T09:38:30;-1.50;99.90
52509;DHT22;38420;53.150;6.370;2022-12-10T09:43:56;-1.40;99.90
52509;DHT22;38420;53.150;6.370;2022-12-10T09:46:45;-1.90;99.90
52509;DHT22;38420;53.150;6.370;2022-12-10T09:51:59;-1.50;99.90
52509;DHT22;38420;53.150;6.370;2022-12-10T09:54:30;-1.40;99.90
52509;DHT22;38420;53.150;6.370;2022-12-10T09:56:57;-1.40;99.90
52509;DHT22;38420;53.150;6.370;2022-12-10T09:59:46;-1.90;99.90
52509;DHT22;38420;53.150;6.370;2022-12-10T10:02:20;-1.80;99.90
52509;DHT22;38420;53.150;6.370;2022-12-10T10:04:47;-1.70;99.90
52509;DHT22;38420;53.150;6.370;2022-12-10T10:07:26;-1.70;99.90
52509;DHT22;38420;53.150;6.370;2022-12-10T10:09:57;-1.30;99.90
52509;DHT22;38420;53.150;6.370;2022-12-10T10:12:23;-1.20;99.90
52509;DHT22;38420;53.150;6.370;2022-12-10T10:14:49;-1.20;99.90
52509;DHT22;38420;53.150;6.370;2022-12-10T10:17:44;-1.70;99.90
52509;DHT22;38420;53.150;6.370;2022-12-10T10:20:13;-1.20;99.90
52509;DHT22;38420;53.150;6.370;2022-12-10T10:22:39;-1.30;99.90
52509;DHT22;38420;53.150;6.370;2022-12-10T10:25:12;-1.50;99.90
52509;DHT22;38420;53.150;6.370;2022-12-10T10:27:38;-1.20;99.90
52509;DHT22;38420;53.150;6.370;2022-12-10T10:30:06;-1.10;99.90
52509;DHT22;38420;53.150;6.370;2022-12-10T10:35:00;-1.10;99.90
52509;DHT22;38420;53.150;6.370;2022-12-10T10:37:39;-1.10;99.90
52509;DHT22;38420;53.150;6.370;2022-12-10T10:40:05;-1.50;99.90
52509;DHT22;38420;53.150;6.370;2022-12-10T10:42:42;-1.50;99.90
52509;DHT22;38420;53.150;6.370;2022-12-10T10:45:38;-1.60;99.90
52509;DHT22;38420;53.150;6.370;2022-12-10T10:50:47;-1.30;99.90
52509;DHT22;38420;53.150;6.370;2022-12-10T10:56:07;-1.40;99.90
52509;DHT22;38420;53.150;6.370;2022-12-10T10:58:34;-0.90;99.90
52509;DHT22;38420;53.150;6.370;2022-12-10T11:01:08;-1.50;99.90
52509;DHT22;38420;53.150;6.370;2022-12-10T11:03:35;-0.90;99.90
52509;DHT22;38420;53.150;6.370;2022-12-10T11:06:06;-1.10;99.90
52509;DHT22;38420;53.150;6.370;2022-12-10T11:08:34;-0.90;99.90
52509;DHT22;38420;53.150;6.370;2022-12-10T11:11:05;-1.10;99.90
52509;DHT22;38420;53.150;6.370;2022-12-10T11:13:34;-0.80;99.90
52509;DHT22;38420;53.150;6.370;2022-12-10T11:18:43;-0.70;99.90
52509;DHT22;38420;53.150;6.370;2022-12-10T11:21:19;-0.80;99.90
52509;DHT22;38420;53.150;6.370;2022-12-10T11:23:49;-1.30;99.90
52509;DHT22;38420;53.150;6.370;2022-12-10T11:34:20;-1.30;99.90
52509;DHT22;38420;53.150;6.370;2022-12-10T11:37:04;-0.80;99.90
52509;DHT22;38420;53.150;6.370;2022-12-10T11:42:38;-1.20;99.90
52509;DHT22;38420;53.150;6.370;2022-12-10T11:45:15;-1.20;99.90
52509;DHT22;38420;53.150;6.370;2022-12-10T11:47:59;-1.00;99.90
52509;DHT22;38420;53.150;6.370;2022-12-10T11:56:33;-1.10;99.90
52509;DHT22;38420;53.150;6.370;2022-12-10T12:13:00;-0.80;99.90
52509;DHT22;38420;53.150;6.370;2022-12-10T12:18:20;-0.70;99.90
52509;DHT22;38420;53.150;6.370;2022-12-10T12:20:52;-0.50;99.90
52509;DHT22;38420;53.150;6.370;2022-12-10T12:26:15;-0.70;99.90
52509;DHT22;38420;53.150;6.370;2022-12-10T12:28:47;-0.90;99.90
52509;DHT22;38420;53.150;6.370;2022-12-10T12:31:20;-0.40;99.90
52509;DHT22;38420;53.150;6.370;2022-12-10T12:33:59;-0.80;99.90
52509;DHT22;38420;53.150;6.370;2022-12-10T12:36:34;-0.60;99.90
52509;DHT22;38420;53.150;6.370;2022-12-10T12:45:13;-0.40;99.90
52509;DHT22;38420;53.150;6.370;2022-12-10T12:47:41;-0.40;99.90
52509;DHT22;38420;53.150;6.370;2022-12-10T12:50:53;-0.90;99.90
52509;DHT22;38420;53.150;6.370;2022-12-10T12:53:19;-0.60;99.90
52509;DHT22;38420;53.150;6.370;2022-12-10T12:56:08;-0.60;99.90
52509;DHT22;38420;53.150;6.370;2022-12-10T12:59:00;-0.80;99.90
52509;DHT22;38420;53.150;6.370;2022-12-10T13:01:43;-0.90;99.90
52509;DHT22;38420;53.150;6.370;2022-12-10T13:04:12;-0.90;99.90
52509;DHT22;38420;53.150;6.370;2022-12-10T13:06:39;-0.90;99.90
52509;DHT22;38420;53.150;6.370;2022-12-10T13:11:40;-0.50;99.90
52509;DHT22;38420;53.150;6.370;2022-12-10T13:17:00;-0.90;99.90
52509;DHT22;38420;53.150;6.370;2022-12-10T13:19:28;-0.90;99.90
52509;DHT22;38420;53.150;6.370;2022-12-10T13:42:43;-0.50;99.90
52509;DHT22;38420;53.150;6.370;2022-12-10T13:45:31;-0.80;99.90
52509;DHT22;38420;53.150;6.370;2022-12-10T13:48:29;-0.80;99.90
52509;DHT22;38420;53.150;6.370;2022-12-10T13:53:54;-0.60;99.90
52509;DHT22;38420;53.150;6.370;2022-12-10T14:07:15;-0.80;99.90
52509;DHT22;38420;53.150;6.370;2022-12-10T14:09:50;-0.60;99.90
52509;DHT22;38420;53.150;6.370;2022-12-10T14:12:37;-0.20;99.90
52509;DHT22;38420;53.150;6.370;2022-12-10T14:15:07;-0.40;99.90
52509;DHT22;38420;53.150;6.370;2022-12-10T14:17:41;-0.10;99.90
52509;DHT22;38420;53.150;6.370;2022-12-10T14:20:14;-0.30;99.90
52509;DHT22;38420;53.150;6.370;2022-12-10T14:22:47;-0.40;99.90
52509;DHT22;38420;53.150;6.370;2022-12-10T14:25:16;-0.70;99.90
52509;DHT22;38420;53.150;6.370;2022-12-10T14:27:44;-0.30;99.90
52509;DHT22;38420;53.150;6.370;2022-12-10T14:30:16;-0.40;99.90
52509;DHT22;38420;53.150;6.370;2022-12-10T14:32:42;-0.30;99.90
52509;DHT22;38420;53.150;6.370;2022-12-10T14:35:14;-0.40;99.90
52509;DHT22;38420;53.150;6.370;2022-12-10T14:37:43;-0.40;99.90
52509;DHT22;38420;53.150;6.370;2022-12-10T14:40:22;-0.20;99.90
52509;DHT22;38420;53.150;6.370;2022-12-10T14:42:49;-0.40;99.90
52509;DHT22;38420;53.150;6.370;2022-12-10T14:45:15;-0.80;99.90
52509;DHT22;38420;53.150;6.370;2022-12-10T14:47:41;-0.70;99.90
52509;DHT22;38420;53.150;6.370;2022-12-10T14:50:13;-0.40;99.90
52509;DHT22;38420;53.150;6.370;2022-12-10T14:52:50;-0.50;99.90
52509;DHT22;38420;53.150;6.370;2022-12-10T14:55:21;-0.20;99.90
52509;DHT22;38420;53.150;6.370;2022-12-10T14:57:54;-0.50;99.90
52509;DHT22;38420;53.150;6.370;2022-12-10T15:00:22;-0.40;99.90
52509;DHT22;38420;53.150;6.370;2022-12-10T15:02:55;-0.20;99.90
52509;DHT22;38420;53.150;6.370;2022-12-10T15:05:25;-0.10;99.90
52509;DHT22;38420;53.150;6.370;2022-12-10T15:10:50;-0.40;99.90
52509;DHT22;38420;53.150;6.370;2022-12-10T15:13:19;-0.70;99.90
52509;DHT22;38420;53.150;6.370;2022-12-10T15:15:50;-0.60;99.90
52509;DHT22;38420;53.150;6.370;2022-12-10T15:18:21;-0.30;99.90
52509;DHT22;38420;53.150;6.370;2022-12-10T15:20:52;-0.50;99.90
52509;DHT22;38420;53.150;6.370;2022-12-10T15:30:54;-0.30;99.90
52509;DHT22;38420;53.150;6.370;2022-12-10T15:33:41;-0.10;99.90
52509;DHT22;38420;53.150;6.370;2022-12-10T15:36:17;-0.30;99.90
52509;DHT22;38420;53.150;6.370;2022-12-10T15:38:45;-0.30;99.90
52509;DHT22;38420;53.150;6.370;2022-12-10T15:41:47;-0.10;99.90
52509;DHT22;38420;53.150;6.370;2022-12-10T15:46:59;-0.70;99.90
52509;DHT22;38420;53.150;6.370;2022-12-10T15:49:25;-0.70;99.90
52509;DHT22;38420;53.150;6.370;2022-12-10T15:51:51;-0.50;99.90
52509;DHT22;38420;53.150;6.370;2022-12-10T15:54:34;-0.30;99.90
52509;DHT22;38420;53.150;6.370;2022-12-10T15:57:14;-0.40;99.90
52509;DHT22;38420;53.150;6.370;2022-12-10T15:59:41;-0.80;99.90
52509;DHT22;38420;53.150;6.370;2022-12-10T16:04:51;-0.20;99.90
52509;DHT22;38420;53.150;6.370;2022-12-10T16:07:17;-0.30;99.90
52509;DHT22;38420;53.150;6.370;2022-12-10T16:09:44;-0.80;99.90
52509;DHT22;38420;53.150;6.370;2022-12-10T16:12:14;-0.20;99.90
52509;DHT22;38420;53.150;6.370;2022-12-10T16:14:48;-0.70;99.90
52509;DHT22;38420;53.150;6.370;2022-12-10T16:17:15;-0.40;99.90
52509;DHT22;38420;53.150;6.370;2022-12-10T16:19:41;-0.30;99.90
52509;DHT22;38420;53.150;6.370;2022-12-10T16:22:06;-0.70;99.90
52509;DHT22;38420;53.150;6.370;2022-12-10T16:24:32;-0.30;99.90
52509;DHT22;38420;53.150;6.370;2022-12-10T16:26:57;-0.80;99.90
52509;DHT22;38420;53.150;6.370;2022-12-10T16:29:23;-0.50;99.90
52509;DHT22;38420;53.150;6.370;2022-12-10T16:31:49;-0.70;99.90
52509;DHT22;38420;53.150;6.370;2022-12-10T16:34:14;-0.50;99.90
52509;DHT22;38420;53.150;6.370;2022-12-10T16:36:40;-0.30;99.90
52509;DHT22;38420;53.150;6.370;2022-12-10T16:39:06;-0.70;99.90
52509;DHT22;38420;53.150;6.370;2022-12-10T16:41:32;-0.30;99.90
52509;DHT22;38420;53.150;6.370;2022-12-10T16:43:58;-0.50;99.90
52509;DHT22;38420;53.150;6.370;2022-12-10T16:46:24;-0.90;99.90
52509;DHT22;38420;53.150;6.370;2022-12-10T16:48:49;-0.60;99.90
52509;DHT22;38420;53.150;6.370;2022-12-10T16:51:23;-0.30;99.90
52509;DHT22;38420;53.150;6.370;2022-12-10T16:53:49;-0.90;99.90
52509;DHT22;38420;53.150;6.370;2022-12-10T16:56:16;-1.00;99.90
52509;DHT22;38420;53.150;6.370;2022-12-10T16:58:43;-0.60;99.90
52509;DHT22;38420;53.150;6.370;2022-12-10T17:01:19;-1.00;99.90
52509;DHT22;38420;53.150;6.370;2022-12-10T17:03:46;-1.10;99.90
52509;DHT22;38420;53.150;6.370;2022-12-10T17:06:11;-0.60;99.90
52509;DHT22;38420;53.150;6.370;2022-12-10T17:08:37;-1.00;99.90
52509;DHT22;38420;53.150;6.370;2022-12-10T17:11:24;-0.50;99.90
52509;DHT22;38420;53.150;6.370;2022-12-10T17:14:24;-0.60;99.90
52509;DHT22;38420;53.150;6.370;2022-12-10T17:16:52;-0.90;99.90
52509;DHT22;38420;53.150;6.370;2022-12-10T17:19:18;-0.50;99.90
52509;DHT22;38420;53.150;6.370;2022-12-10T17:21:44;-0.50;99.90
52509;DHT22;38420;53.150;6.370;2022-12-10T17:24:09;-1.10;99.90
52509;DHT22;38420;53.150;6.370;2022-12-10T17:26:38;-1.10;99.90
52509;DHT22;38420;53.150;6.370;2022-12-10T17:29:29;-0.90;99.90
52509;DHT22;38420;53.150;6.370;2022-12-10T17:31:55;-0.50;99.90
52509;DHT22;38420;53.150;6.370;2022-12-10T17:34:21;-0.90;99.90
52509;DHT22;38420;53.150;6.370;2022-12-10T17:36:49;-0.60;99.90
52509;DHT22;38420;53.150;6.370;2022-12-10T17:39:18;-1.20;99.90
52509;DHT22;38420;53.150;6.370;2022-12-10T17:41:44;-0.60;99.90
52509;DHT22;38420;53.150;6.370;2022-12-10T17:44:10;-0.60;99.90
52509;DHT22;38420;53.150;6.370;2022-12-10T17:46:37;-0.90;99.90
52509;DHT22;38420;53.150;6.370;2022-12-10T17:49:03;-1.20;99.90
52509;DHT22;38420;53.150;6.370;2022-12-10T17:51:29;-0.90;99.90
52509;DHT22;38420;53.150;6.370;2022-12-10T17:53:55;-1.20;99.90